AirNav   TITAN Aviation Fuels
 
 675 users online  

ID35 High Valley Swanson Airport
Cascade, Idaho, USA

GOING TO CASCADE?


FAA INFORMATION EFFECTIVE 17 JUNE 2021

Location

FAA Identifier: ID35
Lat/Long: 44-14-20.6090N 116-08-36.4720W
44-14.343483N 116-08.607867W
44.2390581,-116.1434644
(estimated)
Elevation: 4883 ft. / 1488.3 m (surveyed)
Variation: 17E (1985)
From city: 18 miles SW of CASCADE, ID
Time zone: UTC -6 (UTC -7 during Standard Time)
Zip code: 83611

Airport Operations

Airport use: Private use. Permission required prior to landing
Activation date: 11/1981
Control tower: no
ARTCC: SALT LAKE CITY CENTER
FSS: BOISE FLIGHT SERVICE STATION
Attendance: UNATNDD
Wind indicator: yes
Segmented circle: no

Nearby radio navigation aids

VOR radial/distance  VOR name  Freq  Var
DNJr156/31.8DONNELLY VOR/DME116.2019E

Airport Services

Runway Information

Runway 18/36

Dimensions: 2300 x 50 ft. / 701 x 15 m
Surface: turf/dirt
RUNWAY 18  RUNWAY 36
Traffic pattern: leftleft

Airport Ownership and Management from official FAA records

Ownership: Privately-owned
Owner: THE LARRY SWANSON TRUST
P.O. BOX 874059
VANCOUVER, WA 98687
Phone 360-609-9688
LAURA TRIBBLE, TRUSTEE

Airport Operational Statistics

Aircraft based on the field: 6
Single engine airplanes: 6
    

Additional Remarks

CAUTION: RWY 18/36 TREES AND BIRD HAZARD ON RWY 18.
FOR CD CTC SALT LAKE ARTCC AT 801-320-2568.

Instrument Procedures

There are no published instrument procedures at ID35.

Some nearby airports with instrument procedures:

S87 - Weiser Municipal Airport (35 nm W)
KMYL - Mc Call Municipal Airport (39 nm N)
KONO - Ontario Municipal Airport (40 nm W)
KBOI - Boise Air Terminal/Gowen Field (41 nm S)
KEUL - Caldwell Industrial Airport (42 nm SW)
 
Loc | Ops | Rwys | IFR | FBO | Links
Com | Nav | Svcs | Stats | Notes
Area around ID35 (High Valley Swanson Airport)
 
Road maps at: MapQuest Bing Google
 
Aerial photo
WARNING: Photo may not be current or correct
Aerial photo of ID35 (High Valley Swanson Airport)
Photo by Alan Wallace
Photo taken 14-May-2007

Do you have a better or more recent aerial photo of High Valley Swanson Airport that you would like to share? If so, please send us your photo.

 
Sectional chart

 
Airport distance calculator
Flying to High Valley Swanson Airport? Find the distance to fly.

From to ID35

Sunrise and sunset
Times for 19-Jun-2021
 Local
(UTC-6)
 Zulu
(UTC)
Morning civil twilight05:2511:25
Sunrise06:0112:01
Sunset21:3003:30
Evening civil twilight22:0704:07

Current date and time
Zulu (UTC)  20-Jun-2021 04:29:35
Local (UTC-6)  19-Jun-2021 22:29:35
 
METAR
KMYL 
39nm N 
200351Z AUTO 32005KT 10SM CLR 22/02 A2995 RMK AO2 SLP093 T02170017 $
KONO 
40nm W 
200353Z AUTO 35012G24KT 10SM CLR 29/02 A2980 RMK AO2 SLP068 T02890022 $
KBOI 
41nm S 
200353Z 33008KT 10SM CLR 28/03 A2981 RMK AO2 SLP062 T02830033
KEUL 
43nm SW 
200356Z AUTO 31009KT 10SM CLR 27/07 A2981 RMK AO2 SLP067 T02720067
KMAN 
43nm SW 
200415Z AUTO 32009KT 10SM 27/05 A2982 RMK A01
TAF
KMYL 
39nm N 
191720Z 1918/2018 VRB05KT P6SM SKC FM192000 26010G18KT P6SM FEW250 FM200200 VRB03KT P6SM FEW250
KBOI 
41nm S 
191720Z 1918/2018 31008KT P6SM FEW250 FM192200 32012G20KT P6SM SKC FM200300 33007KT P6SM SKC FM200700 VRB05KT P6SM SKC
KEUL 
43nm SW 
191720Z 1918/2018 26009KT P6SM SKC FM192200 33010G20KT P6SM FEW250 FM200400 31008KT P6SM SKC
NOTAMs
Click for the latest NOTAMs
NOTAMs are issued by the DoD/FAA and will open in a separate window not controlled by AirNav.

 

 
 

Would you like to see your business listed on this page?

 If your business provides an interesting product or service to pilots, flight crews, aircraft, or users of the High Valley Swanson Airport, you should consider listing it here.  To start the listing process, click on the button below
 
Add a business
 

Other Pages about High Valley Swanson Airport

Update a link
 
Copyright © AirNav, LLC. All rights reserved. Privacy Policy  Contact